createdAt,value
2022-09-25T00:01:32.935Z,12.50
2022-09-25T00:04:19.527Z,12.50
2022-09-25T00:07:05.178Z,12.70
2022-09-25T00:09:50.334Z,10.73
2022-09-25T00:12:36.072Z,9.68
2022-09-25T00:15:22.528Z,6.70
2022-09-25T00:18:08.013Z,9.07
2022-09-25T00:21:01.872Z,9.43
2022-09-25T00:23:47.794Z,9.35
2022-09-25T00:26:36.345Z,8.45
2022-09-25T00:29:22.054Z,6.47
2022-09-25T00:32:09.998Z,5.63
2022-09-25T00:34:55.720Z,4.88
2022-09-25T00:37:40.998Z,6.40
2022-09-25T00:40:26.424Z,5.30
2022-09-25T00:43:33.501Z,5.65
2022-09-25T00:46:36.773Z,4.97
2022-09-25T00:49:25.967Z,6.72
2022-09-25T00:52:13.336Z,6.07
2022-09-25T00:55:03.259Z,4.70
2022-09-25T00:57:52.470Z,5.70
2022-09-25T01:00:37.949Z,5.82
2022-09-25T01:03:24.226Z,9.82
2022-09-25T01:06:12.111Z,7.13
2022-09-25T01:08:59.245Z,5.28
2022-09-25T01:11:45.209Z,10.15
2022-09-25T01:14:34.189Z,11.75
2022-09-25T01:17:32.378Z,6.68
2022-09-25T01:21:12.591Z,5.90
2022-09-25T01:24:37.353Z,7.63
2022-09-25T01:27:32.157Z,7.55
2022-09-25T01:30:19.769Z,6.10
2022-09-25T01:33:15.069Z,6.75
2022-09-25T01:36:12.024Z,5.78
2022-09-25T01:39:05.992Z,6.68
2022-09-25T01:42:03.185Z,5.60
2022-09-25T01:45:02.404Z,6.03
2022-09-25T01:47:50.254Z,6.65
2022-09-25T01:50:43.428Z,5.97
2022-09-25T01:53:43.510Z,5.90
2022-09-25T01:59:45.310Z,8.20
2022-09-25T02:02:37.976Z,5.97
2022-09-25T02:05:31.078Z,7.97
2022-09-25T02:08:31.087Z,8.57
2022-09-25T02:11:16.788Z,6.90
2022-09-25T02:14:13.714Z,5.47
2022-09-25T02:17:01.374Z,7.10
2022-09-25T02:20:05.611Z,5.22
2022-09-25T02:22:54.145Z,5.40
2022-09-25T02:26:08.263Z,6.88
2022-09-25T02:28:54.452Z,6.28
2022-09-25T02:31:45.093Z,7.60
2022-09-25T02:34:32.539Z,6.80
2022-09-25T02:37:18.791Z,6.30
2022-09-25T02:40:04.937Z,5.55
2022-09-25T02:43:04.130Z,6.43
2022-09-25T02:46:03.839Z,7.05
2022-09-25T02:49:04.757Z,6.10
2022-09-25T02:52:02.830Z,5.68
2022-09-25T02:55:07.147Z,6.25
2022-09-25T02:58:04.088Z,10.05
2022-09-25T03:00:52.195Z,6.65
2022-09-25T03:03:39.217Z,7.25
2022-09-25T03:06:25.941Z,7.60
2022-09-25T03:09:13.610Z,7.50
2022-09-25T03:11:59.200Z,8.63
2022-09-25T03:14:44.568Z,8.23
2022-09-25T03:17:29.835Z,7.72
2022-09-25T03:20:15.155Z,9.85
2022-09-25T03:23:00.904Z,6.45
2022-09-25T03:25:50.266Z,6.80
2022-09-25T03:28:36.614Z,10.65
2022-09-25T03:31:22.684Z,9.23
2022-09-25T03:34:09.467Z,7.85
2022-09-25T03:36:54.694Z,6.88
2022-09-25T03:39:40.009Z,7.50
2022-09-25T03:42:27.645Z,8.77
2022-09-25T03:45:13.440Z,8.43
2022-09-25T03:47:58.753Z,7.00
2022-09-25T03:50:44.580Z,7.30
2022-09-25T03:53:31.731Z,6.10
2022-09-25T03:56:20.387Z,10.18
2022-09-25T03:59:05.622Z,7.43
2022-09-25T04:01:50.973Z,8.95
2022-09-25T04:04:37.771Z,6.85
2022-09-25T04:07:24.787Z,9.38
2022-09-25T04:10:10.319Z,6.95
2022-09-25T04:12:55.707Z,5.50
2022-09-25T04:15:42.783Z,5.88
2022-09-25T04:18:31.923Z,6.95
2022-09-25T04:21:17.486Z,10.73
2022-09-25T04:24:21.442Z,6.53
2022-09-25T04:27:07.222Z,6.60
2022-09-25T04:29:52.963Z,9.18
2022-09-25T04:32:56.791Z,9.70
2022-09-25T04:35:42.315Z,7.35
2022-09-25T04:38:27.706Z,11.88
2022-09-25T04:41:13.211Z,8.05
2022-09-25T04:43:58.469Z,10.77
2022-09-25T04:46:44.208Z,5.85
2022-09-25T04:49:29.399Z,7.75
2022-09-25T04:52:16.152Z,8.93
2022-09-25T04:55:01.572Z,6.35
2022-09-25T04:57:58.795Z,10.27
2022-09-25T05:00:44.627Z,6.72
2022-09-25T05:03:30.128Z,8.65
2022-09-25T05:06:15.893Z,8.82
2022-09-25T05:09:02.032Z,8.82
2022-09-25T05:11:47.730Z,9.80
2022-09-25T05:14:33.159Z,12.20
2022-09-25T05:17:18.471Z,14.43
2022-09-25T05:20:03.781Z,11.63
2022-09-25T05:22:49.115Z,13.13
2022-09-25T05:25:34.677Z,12.57
2022-09-25T05:28:20.353Z,12.70
2022-09-25T05:31:06.515Z,17.33
2022-09-25T05:33:53.969Z,14.95
2022-09-25T05:36:39.776Z,11.27
2022-09-25T05:39:24.883Z,13.70
2022-09-25T05:42:10.679Z,9.60
2022-09-25T05:44:56.200Z,8.80
2022-09-25T05:47:43.607Z,9.75
2022-09-25T05:50:29.720Z,13.90
2022-09-25T05:53:15.278Z,9.02
2022-09-25T05:56:03.476Z,9.10
2022-09-25T05:58:49.280Z,19.92
2022-09-25T06:01:34.903Z,13.15
2022-09-25T06:04:20.403Z,10.32
2022-09-25T06:07:06.010Z,16.33
2022-09-25T06:09:51.360Z,14.63
2022-09-25T06:12:36.776Z,15.52
2022-09-25T06:15:24.155Z,13.40
2022-09-25T06:18:10.046Z,17.13
2022-09-25T06:21:04.619Z,16.27
2022-09-25T06:23:50.224Z,15.25
2022-09-25T06:26:35.576Z,15.32
2022-09-25T06:29:20.858Z,15.02
2022-09-25T06:32:06.206Z,16.55
2022-09-25T06:34:51.405Z,22.38
2022-09-25T06:37:36.905Z,21.92
2022-09-25T06:40:22.269Z,19.27
2022-09-25T06:43:11.661Z,11.00
2022-09-25T06:46:00.137Z,14.85
2022-09-25T06:48:54.257Z,8.30
2022-09-25T06:51:40.310Z,11.73
2022-09-25T06:54:29.624Z,14.18
2022-09-25T06:57:16.184Z,10.00
2022-09-25T07:00:03.511Z,15.35
2022-09-25T07:03:07.792Z,6.68
2022-09-25T07:05:53.174Z,10.38
2022-09-25T07:08:40.160Z,6.10
2022-09-25T07:11:28.277Z,9.80
2022-09-25T07:14:13.836Z,5.55
2022-09-25T07:16:59.773Z,11.60
2022-09-25T07:19:45.020Z,7.88
2022-09-25T07:22:30.517Z,10.27
2022-09-25T07:25:16.142Z,6.22
2022-09-25T07:28:02.288Z,9.13
2022-09-25T07:30:49.881Z,7.20
2022-09-25T07:33:37.132Z,8.15
2022-09-25T07:36:23.236Z,8.68
2022-09-25T07:39:11.759Z,9.55
2022-09-25T07:42:00.278Z,6.22
2022-09-25T07:44:48.519Z,5.75
2022-09-25T07:47:34.162Z,11.80
2022-09-25T07:50:19.782Z,6.28
2022-09-25T07:53:05.126Z,6.95
2022-09-25T07:55:51.164Z,7.15
2022-09-25T07:58:36.607Z,7.10
2022-09-25T08:01:22.014Z,4.13
2022-09-25T08:04:07.599Z,5.53
2022-09-25T08:06:53.294Z,4.20
2022-09-25T08:09:41.457Z,5.18
2022-09-25T08:12:29.821Z,6.25
2022-09-25T08:15:16.465Z,7.72
2022-09-25T08:18:02.172Z,3.55
2022-09-25T08:20:48.531Z,4.95
2022-09-25T08:23:34.547Z,3.28
2022-09-25T08:26:22.045Z,8.80
2022-09-25T08:29:10.753Z,4.00
2022-09-25T08:31:56.316Z,3.25
2022-09-25T08:34:43.078Z,3.50
2022-09-25T08:37:31.275Z,7.57
2022-09-25T08:40:20.450Z,3.17
2022-09-25T08:43:08.383Z,3.20
2022-09-25T08:46:18.872Z,2.78
2022-09-25T08:49:15.697Z,3.30
2022-09-25T08:52:09.222Z,5.40
2022-09-25T08:54:55.396Z,3.47
2022-09-25T08:57:44.330Z,3.05
2022-09-25T09:00:30.996Z,2.60
2022-09-25T09:03:17.303Z,2.38
2022-09-25T09:06:08.538Z,10.50
2022-09-25T09:09:29.803Z,6.03
2022-09-25T09:12:28.800Z,6.43
2022-09-25T09:15:32.761Z,3.83
2022-09-25T09:18:29.057Z,3.00
2022-09-25T09:21:38.655Z,6.88
2022-09-25T09:24:34.172Z,2.92
2022-09-25T09:27:26.044Z,2.33
2022-09-25T09:30:23.390Z,2.45
2022-09-25T09:33:21.320Z,3.00
2022-09-25T09:36:34.927Z,4.43
2022-09-25T09:39:24.719Z,3.75
2022-09-25T09:42:28.882Z,2.45
2022-09-25T09:45:46.871Z,2.40
2022-09-25T09:48:44.491Z,2.60
2022-09-25T09:51:45.034Z,3.15
2022-09-25T09:54:45.768Z,3.42
2022-09-25T09:57:38.110Z,2.60
2022-09-25T10:00:24.324Z,2.80
2022-09-25T10:03:17.269Z,4.85
2022-09-25T10:06:09.069Z,2.83
2022-09-25T10:08:54.686Z,2.97
2022-09-25T10:11:41.637Z,2.28
2022-09-25T10:14:33.091Z,2.90
2022-09-25T10:17:20.011Z,3.30
2022-09-25T10:20:24.977Z,5.13
2022-09-25T10:23:35.835Z,2.90
2022-09-25T10:26:35.949Z,3.88
2022-09-25T10:29:21.235Z,3.97
2022-09-25T10:32:11.963Z,2.83
2022-09-25T10:34:57.637Z,4.28
2022-09-25T10:37:43.465Z,2.75
2022-09-25T10:40:35.841Z,2.80
2022-09-25T10:43:24.011Z,4.80
2022-09-25T10:46:15.434Z,2.30
2022-09-25T10:49:35.010Z,4.25
2022-09-25T10:52:21.808Z,5.20
2022-09-25T10:55:46.410Z,2.53
2022-09-25T10:58:41.001Z,4.32
2022-09-25T11:01:46.156Z,4.97
2022-09-25T11:04:34.405Z,2.95
2022-09-25T11:07:24.897Z,3.05
2022-09-25T11:10:20.867Z,3.80
2022-09-25T11:13:21.170Z,2.53
2022-09-25T11:16:12.036Z,4.35
2022-09-25T11:19:13.116Z,3.80
2022-09-25T11:22:09.525Z,2.13
2022-09-25T11:25:04.217Z,3.00
2022-09-25T11:28:15.103Z,2.95
2022-09-25T11:31:19.234Z,2.72
2022-09-25T11:34:31.347Z,2.67
2022-09-25T11:37:36.129Z,3.35
2022-09-25T11:40:46.711Z,2.35
2022-09-25T11:44:05.990Z,2.72
2022-09-25T11:47:05.081Z,4.13
2022-09-25T11:49:53.307Z,3.15
2022-09-25T11:52:43.773Z,3.95
2022-09-25T11:55:45.849Z,2.50
2022-09-25T11:58:54.285Z,2.63
2022-09-25T12:01:50.297Z,2.78
2022-09-25T12:04:50.324Z,2.20
2022-09-25T12:08:07.214Z,3.35
2022-09-25T12:11:12.044Z,3.30
2022-09-25T12:14:26.766Z,2.70
2022-09-25T12:17:46.140Z,2.17
2022-09-25T12:20:58.028Z,4.05
2022-09-25T12:23:51.653Z,2.78
2022-09-25T12:26:40.013Z,3.45
2022-09-25T12:29:37.877Z,2.80
2022-09-25T12:32:26.570Z,3.17
2022-09-25T12:35:38.795Z,7.60
2022-09-25T12:38:55.467Z,3.35
2022-09-25T12:41:51.106Z,5.63
2022-09-25T12:44:50.442Z,2.33
2022-09-25T12:47:43.183Z,2.42
2022-09-25T12:50:33.552Z,3.00
2022-09-25T12:53:33.673Z,5.18
2022-09-25T12:56:27.889Z,2.40
2022-09-25T12:59:21.720Z,2.83
2022-09-25T13:02:26.499Z,5.60
2022-09-25T13:05:30.514Z,2.55
2022-09-25T13:08:42.070Z,3.33
2022-09-25T13:11:34.375Z,2.70
2022-09-25T13:14:31.623Z,5.30
2022-09-25T13:17:17.016Z,2.80
2022-09-25T13:20:28.730Z,3.20
2022-09-25T13:23:26.340Z,3.30
2022-09-25T13:26:16.395Z,3.50
2022-09-25T13:29:25.664Z,4.45
2022-09-25T13:32:16.624Z,3.45
2022-09-25T13:35:05.958Z,3.10
2022-09-25T13:37:55.730Z,3.13
2022-09-25T13:40:44.089Z,3.17
2022-09-25T13:43:30.530Z,4.43
2022-09-25T13:46:23.685Z,4.20
2022-09-25T13:49:34.679Z,6.28
2022-09-25T13:52:30.432Z,10.73
2022-09-25T13:55:22.520Z,5.30
2022-09-25T13:58:29.007Z,5.80
2022-09-25T14:01:34.317Z,5.00
2022-09-25T14:04:26.381Z,5.97
2022-09-25T14:07:18.509Z,9.23
2022-09-25T14:10:08.346Z,8.73
2022-09-25T14:12:54.576Z,8.00
2022-09-25T14:15:42.441Z,9.93
2022-09-25T14:18:34.397Z,11.77
2022-09-25T14:21:22.188Z,14.43
2022-09-25T14:24:30.932Z,12.60
2022-09-25T14:27:27.913Z,10.20
2022-09-25T14:30:14.790Z,8.40
2022-09-25T14:33:32.119Z,5.07
2022-09-25T14:36:39.130Z,8.05
2022-09-25T14:39:54.665Z,5.93
2022-09-25T14:43:19.203Z,5.07
2022-09-25T14:46:18.741Z,5.45
2022-09-25T14:49:27.779Z,10.55
2022-09-25T14:52:19.387Z,8.43
2022-09-25T14:55:06.592Z,12.32
2022-09-25T14:57:53.100Z,12.10
2022-09-25T15:00:50.310Z,7.10
2022-09-25T15:03:43.185Z,5.28
2022-09-25T15:06:39.206Z,5.10
2022-09-25T15:09:36.942Z,5.35
2022-09-25T15:12:36.136Z,6.25
2022-09-25T15:15:22.189Z,7.25
2022-09-25T15:18:14.008Z,6.93
2022-09-25T15:21:01.344Z,6.20
2022-09-25T15:23:47.512Z,5.15
2022-09-25T15:26:40.832Z,6.13
2022-09-25T15:29:26.361Z,4.07
2022-09-25T15:32:39.460Z,5.88
2022-09-25T15:35:28.030Z,5.55
2022-09-25T15:38:14.464Z,5.13
2022-09-25T15:41:00.322Z,3.72
2022-09-25T15:43:46.424Z,6.50
2022-09-25T15:46:37.102Z,7.32
2022-09-25T15:49:33.590Z,7.53
2022-09-25T15:52:24.980Z,6.88
2022-09-25T15:55:14.856Z,10.90
2022-09-25T15:58:08.399Z,11.20
2022-09-25T16:01:19.013Z,6.68
2022-09-25T16:04:27.693Z,11.20
2022-09-25T16:07:39.900Z,10.27
2022-09-25T16:10:33.199Z,11.10
2022-09-25T16:13:21.509Z,10.75
2022-09-25T16:16:22.110Z,8.30
2022-09-25T16:19:26.170Z,9.85
2022-09-25T16:22:23.750Z,7.93
2022-09-25T16:25:25.831Z,6.28
2022-09-25T16:28:21.598Z,11.05
2022-09-25T16:31:09.369Z,9.63
2022-09-25T16:33:57.524Z,6.47
2022-09-25T16:36:45.727Z,9.95
2022-09-25T16:39:38.908Z,20.80
2022-09-25T16:42:28.131Z,28.70
2022-09-25T16:45:31.775Z,24.77
2022-09-25T16:48:27.949Z,13.93
2022-09-25T16:51:24.131Z,15.35
2022-09-25T16:54:11.489Z,14.80
2022-09-25T16:56:59.036Z,11.70
2022-09-25T16:59:44.467Z,12.68
2022-09-25T17:02:36.027Z,12.73
2022-09-25T17:05:26.461Z,14.35
2022-09-25T17:08:20.061Z,11.10
2022-09-25T17:11:05.649Z,9.30
2022-09-25T17:13:51.932Z,9.38
2022-09-25T17:16:37.843Z,7.13
2022-09-25T17:19:23.909Z,9.43
2022-09-25T17:22:09.780Z,8.75
2022-09-25T17:25:01.015Z,8.73
2022-09-25T17:27:46.912Z,8.48
2022-09-25T17:30:33.223Z,7.78
2022-09-25T17:33:20.676Z,7.35
2022-09-25T17:36:09.689Z,5.97
2022-09-25T17:38:55.153Z,8.18
2022-09-25T17:41:41.195Z,5.13
2022-09-25T17:44:28.832Z,7.28
2022-09-25T17:47:14.274Z,5.18
2022-09-25T17:49:59.797Z,7.57
2022-09-25T17:52:45.180Z,4.70
2022-09-25T17:55:32.093Z,5.70
2022-09-25T17:58:17.884Z,11.55
2022-09-25T18:01:07.465Z,10.43
2022-09-25T18:04:02.038Z,8.20
2022-09-25T18:06:48.726Z,7.03
2022-09-25T18:09:34.768Z,6.28
2022-09-25T18:12:20.359Z,8.18
2022-09-25T18:15:06.228Z,4.70
2022-09-25T18:17:51.808Z,6.03
2022-09-25T18:20:55.907Z,5.85
2022-09-25T18:23:45.824Z,5.93
2022-09-25T18:26:31.604Z,5.85
2022-09-25T18:29:19.239Z,5.05
2022-09-25T18:32:05.494Z,6.03
2022-09-25T18:34:51.689Z,7.85
2022-09-25T18:37:37.323Z,5.85
2022-09-25T18:40:22.708Z,10.90
2022-09-25T18:43:08.324Z,5.43
2022-09-25T18:45:54.537Z,4.85
2022-09-25T18:48:47.917Z,5.20
2022-09-25T18:51:34.835Z,5.70
2022-09-25T18:54:21.210Z,15.18
2022-09-25T18:57:08.403Z,23.58
2022-09-25T18:59:59.794Z,40.70
2022-09-25T19:02:47.128Z,49.75
2022-09-25T19:05:33.738Z,75.45
2022-09-25T19:08:20.595Z,72.55
2022-09-25T19:11:14.263Z,57.53
2022-09-25T19:14:01.705Z,50.35
2022-09-25T19:16:54.125Z,44.65
2022-09-25T19:19:42.047Z,32.72
2022-09-25T19:22:27.679Z,15.10
2022-09-25T19:25:15.182Z,18.20
2022-09-25T19:28:02.700Z,8.35
2022-09-25T19:31:06.210Z,14.13
2022-09-25T19:33:53.528Z,15.88
2022-09-25T19:36:38.816Z,13.68
2022-09-25T19:39:24.571Z,11.90
2022-09-25T19:42:11.147Z,7.97
2022-09-25T19:44:58.021Z,6.40
2022-09-25T19:47:43.754Z,6.93
2022-09-25T19:50:29.328Z,6.40
2022-09-25T19:53:15.420Z,7.40
2022-09-25T19:56:02.302Z,6.47
2022-09-25T19:58:49.763Z,5.28
2022-09-25T20:01:35.540Z,6.22
2022-09-25T20:04:21.363Z,5.70
2022-09-25T20:07:06.788Z,6.68
2022-09-25T20:09:52.396Z,6.53
2022-09-25T20:12:37.797Z,6.60
2022-09-25T20:15:23.179Z,10.75
2022-09-25T20:18:08.653Z,6.38
2022-09-25T20:20:54.222Z,6.43
2022-09-25T20:23:39.665Z,6.03
2022-09-25T20:26:26.232Z,10.05
2022-09-25T20:29:14.092Z,6.72
2022-09-25T20:31:59.274Z,11.77
2022-09-25T20:34:44.600Z,12.30
2022-09-25T20:37:30.635Z,11.13
2022-09-25T20:40:16.812Z,14.48
2022-09-25T20:43:02.142Z,11.20
2022-09-25T20:46:04.107Z,9.63
2022-09-25T20:48:51.523Z,8.68
2022-09-25T20:51:37.320Z,16.27
2022-09-25T20:54:25.367Z,9.68
2022-09-25T20:57:11.600Z,7.20
2022-09-25T20:59:57.115Z,9.98
2022-09-25T21:02:42.568Z,9.02
2022-09-25T21:05:28.223Z,8.63
2022-09-25T21:08:13.740Z,9.38
2022-09-25T21:11:01.851Z,8.25
2022-09-25T21:13:52.685Z,5.55
2022-09-25T21:16:37.963Z,5.47
2022-09-25T21:19:23.707Z,6.47
2022-09-25T21:22:09.139Z,7.13
2022-09-25T21:24:54.920Z,5.47
2022-09-25T21:27:40.481Z,5.80
2022-09-25T21:30:25.888Z,6.28
2022-09-25T21:33:11.348Z,4.65
2022-09-25T21:35:56.766Z,7.20
2022-09-25T21:38:43.194Z,4.88
2022-09-25T21:41:30.297Z,4.80
2022-09-25T21:44:17.846Z,4.35
2022-09-25T21:47:03.546Z,4.80
2022-09-25T21:49:48.993Z,7.13
2022-09-25T21:52:34.526Z,8.07
2022-09-25T21:55:19.866Z,5.60
2022-09-25T21:58:05.215Z,5.30
2022-09-25T22:00:50.588Z,8.23
2022-09-25T22:03:37.774Z,6.35
2022-09-25T22:06:29.098Z,5.18
2022-09-25T22:09:23.238Z,5.35
2022-09-25T22:12:08.603Z,8.55
2022-09-25T22:14:54.040Z,6.63
2022-09-25T22:17:39.415Z,7.82
2022-09-25T22:20:24.895Z,6.38
2022-09-25T22:23:10.432Z,6.45
2022-09-25T22:25:55.898Z,7.30
2022-09-25T22:28:42.292Z,7.30
2022-09-25T22:31:30.562Z,8.18
2022-09-25T22:34:17.932Z,9.98
2022-09-25T22:37:03.751Z,10.07
2022-09-25T22:39:49.021Z,10.32
2022-09-25T22:42:34.241Z,7.05
2022-09-25T22:45:19.372Z,7.13
2022-09-25T22:48:06.154Z,7.18
2022-09-25T22:51:07.321Z,7.82
2022-09-25T22:53:54.146Z,7.53
2022-09-25T22:56:39.973Z,6.63
2022-09-25T22:59:25.659Z,9.85
2022-09-25T23:02:11.306Z,6.57
2022-09-25T23:04:56.960Z,4.82
2022-09-25T23:07:42.873Z,4.97
2022-09-25T23:10:42.917Z,5.38
2022-09-25T23:13:34.564Z,6.90
2022-09-25T23:16:20.190Z,5.68
2022-09-25T23:19:05.496Z,4.78
2022-09-25T23:21:52.612Z,4.30
2022-09-25T23:24:38.515Z,5.60
2022-09-25T23:27:23.985Z,5.22
2022-09-25T23:30:10.191Z,4.43
2022-09-25T23:32:55.916Z,4.90
2022-09-25T23:35:41.537Z,4.60
2022-09-25T23:38:27.261Z,5.72
2022-09-25T23:41:21.258Z,4.97
2022-09-25T23:44:08.810Z,4.93
2022-09-25T23:46:54.321Z,4.90
2022-09-25T23:49:39.983Z,5.03
2022-09-25T23:52:26.145Z,4.68
2022-09-25T23:55:11.335Z,7.10
2022-09-25T23:57:56.681Z,6.03
